Flight Track Log - Related Links

Times and Time Zones

All times are in EDT time to prevent confusion due to time zone crossing. See the SWA1586 flight status page for this flight to view local times or setup timezone preferences in your user account.

Time Position Orientation Groundspeed Altitude Reporting Facility
EDT Latitude Longitude Course Direction KTS MPH feet Rate Location/Type
Fri 09:54:40 PM 40.8100 -111.9639 352° North 176 203 5,000  Level Salt Lake Center
Fri 09:55:34 PM 40.8592 -111.9728 352° North 196 226 6,600 1,851 Climbing Salt Lake Center
Fri 09:56:14 PM 40.8986 -111.9761 356° North 227 261 7,900 2,687 Climbing Salt Lake Center
Fri 09:56:41 PM 40.9319 -111.9819 352° North 250 288 9,600 3,443 Climbing Salt Lake Center
Fri 09:57:15 PM 40.9708 -111.9850 357° North 255 293 11,400 3,032 Climbing Salt Lake Center
Fri 09:58:16 PM 41.0333 -111.9442 26° Northeast 283 326 14,400 2,293 Climbing Salt Lake Center
Fri 09:59:18 PM 41.0064 -111.8250 107° East 382 440 16,100 2,146 Climbing Salt Lake Center
Fri 10:00:19 PM 40.9858 -111.6458 99° East 422 486 18,800 2,705 Climbing Salt Lake Center
Fri 10:01:20 PM 40.9717 -111.4861 97° East 438 504 21,600 2,488 Climbing Salt Lake Center
Fri 10:02:22 PM 40.9569 -111.3181 97° East 460 529 23,900 2,195 Climbing Salt Lake Center
Fri 10:03:23 PM 40.9403 -111.1458 97° East 471 542 26,100 2,066 Climbing Salt Lake Center
Fri 10:04:24 PM 40.9239 -110.9689 97° East 484 557 28,100 1,756 Climbing Salt Lake Center
Fri 10:05:26 PM 40.9067 -110.7875 97° East 498 573 29,700 1,610 Climbing Salt Lake Center
Fri 10:06:27 PM 40.8894 -110.6036 97° East 506 582 31,400 1,721 Climbing Salt Lake Center
Fri 10:07:28 PM 40.8706 -110.4125 97° East 512 589 33,200 1,902 Climbing Salt Lake Center
Fri 10:08:30 PM 40.8497 -110.2064 98° East 509 586 35,300 1,951 Climbing Salt Lake Center
Fri 10:09:31 PM 40.8292 -110.0117 98° East 501 577 37,200 1,328 Climbing Salt Lake Center
Fri 10:10:32 PM 40.8117 -109.8361 97° East 501 577 38,000 878 Climbing Salt Lake Center
Fri 10:11:34 PM 40.7936 -109.6672 98° East 489 563 39,000  Climbing Salt Lake Center
Fri 10:12:35 PM 40.7739 -109.4753 98° East 475 547 38,000 -934 Descending Salt Lake Center
Fri 10:13:36 PM 40.7558 -109.3086 98° East 478 550 37,100 -488 Descending Salt Lake Center
Fri 10:14:38 PM 40.7375 -109.1389 98° East 481 554 37,000 -55 Descending Salt Lake Center
Fri 10:15:26 PM 40.7192 -108.9681 98° East 485 558 37,000  Level Denver Center
Fri 10:16:28 PM 40.6997 -108.8000 99° East 484 557 37,000  Level Denver Center
Fri 10:17:29 PM 40.6806 -108.6319 98° East 483 556 37,000  Level Denver Center
Fri 10:18:31 PM 40.6581 -108.4372 99° East 481 554 37,000  Level Denver Center
Fri 10:19:32 PM 40.6386 -108.2683 99° East 484 557 37,000  Level Denver Center
Fri 10:20:34 PM 40.6236 -108.0994 97° East 483 556 37,000  Level Denver Center
Fri 10:21:35 PM 40.6069 -107.9033 96° East 483 556 37,000  Level Denver Center
Fri 10:22:37 PM 40.5914 -107.7347 97° East 485 558 37,000 -387 Level Denver Center
Fri 10:23:39 PM 40.5739 -107.5444 97° East 472 543 36,200 -838 Descending Denver Center
Fri 10:24:53 PM 40.5564 -107.3614 97° East 455 524 35,100 -533 Descending Denver Center
Fri 10:25:54 PM 40.5406 -107.1986 97° East 450 518 35,000 -341 Descending Denver Center
Fri 10:26:56 PM 40.5244 -107.0372 97° East 447 514 34,400 -976 Descending Denver Center
Fri 10:27:57 PM 40.5089 -106.8800 97° East 437 503 33,000 -683 Descending Denver Center
Fri 10:28:59 PM 40.4936 -106.7231 97° East 433 498 33,000  Level Denver Center
Fri 10:30:00 PM 40.4742 -106.5308 98° East 439 505 33,000  Level Denver Center
Fri 10:31:02 PM 40.4564 -106.3686 98° East 445 512 33,000  Level Denver Center
Fri 10:32:03 PM 40.4422 -106.2167 97° East 440 506 33,000 -1,512 Level Denver Center
Fri 10:33:05 PM 40.4247 -106.0500 98° East 447 514 29,900 -2,829 Descending Denver Center
Fri 10:34:06 PM 40.4069 -105.8892 98° East 446 513 27,200 -2,634 Descending Denver Center
Fri 10:35:08 PM 40.3889 -105.7300 98° East 443 510 24,500 -2,341 Descending Denver Center
Fri 10:36:09 PM 40.3750 -105.6022 98° East 443 510 22,400 -1,561 Descending Denver Center
Fri 10:37:11 PM 40.3425 -105.4131 103° East 396 456 21,300 -1,512 Descending Denver Center
Fri 10:38:12 PM 40.2722 -105.3019 130° Southeast 371 427 19,300 -1,854 Descending Denver Center
Fri 10:39:14 PM 40.2064 -105.2003 130° Southeast 365 420 17,500 -1,122 Descending Denver Center
Fri 10:40:15 PM 40.1425 -105.0986 129° Southeast 353 406 17,000 -780 Descending Denver Center
Fri 10:41:17 PM 40.0772 -105.0000 131° Southeast 343 395 15,900 -1,268 Descending Denver Center
Fri 10:42:18 PM 40.0178 -104.9078 130° Southeast 334 384 14,400 -1,475 Descending Denver Center
Fri 10:43:19 PM 39.9594 -104.8189 131° Southeast 325 374 12,900 -1,415 Descending Denver Center
Fri 10:44:21 PM 39.8753 -104.8067 174° South 312 359 11,500 -927 Descending Denver Center
Fri 10:45:22 PM 39.7914 -104.8086 181° South 283 326 11,000 -443 Descending Denver Center
Fri 10:46:23 PM 39.7289 -104.8056 178° South 272 313 10,600 -1,171 Descending Denver Center
Fri 10:47:25 PM 39.7186 -104.7028 97° East 253 291 8,600 -1,561 Descending Denver Center
Fri 10:48:26 PM 39.7494 -104.6558 49° Northeast 179 206 7,400 -1,220 Descending Denver Center
Fri 10:49:28 PM 39.7881 -104.6606 355° North 142 163 6,100 -976 Descending Denver Center
Fri 10:50:29 PM 39.8297 -104.6606 360° North 139 160 5,400 -689 Descending Denver Center
Fri 10:52:00 PM 39.8500 -104.6667 North  Level FlightAware Approximate
Fri 10:59:00 PM 39.8617 -104.6732 North  Level Estimated
Fri 11:00:00 PM 39.8617 -104.6732 North  Level Estimated

Login

Don't have an account? Register now (free) for customized features, flight alerts, and more!